Time;durP1;ratioP1;P1;durP2;ratioP2;P2;SDS_P1;SDS_P2;PMS_P1;PMS_P2;Temp;Humidity;BMP_temperature;BMP_pressure;BME280_temperature;BME280_humidity;BME280_pressure;Samples;Min_cycle;Max_cycle;Signal;HPM_P1;HPM_P2
2023/07/31 00:00:14;;;;;;;;;;;20.70;62.00;;;;;;5087915;28;20023;-50
2023/07/31 00:02:41;;;;;;;;;;;20.70;62.10;;;;;;5093454;28;20274;-53
2023/07/31 00:05:12;;;;;;;;;;;20.70;61.80;;;;;;5093009;28;19920;-50
2023/07/31 00:07:39;;;;;;;;;;;20.80;62.10;;;;;;5089049;28;20450;-51
2023/07/31 00:10:10;;;;;;;;;;;20.80;61.90;;;;;;5092433;28;20012;-54
2023/07/31 00:12:41;;;;;;;;;;;20.80;62.00;;;;;;5092944;28;19927;-50
2023/07/31 00:15:12;;;;;;;;;;;20.80;63.00;;;;;;5090835;28;19926;-52
2023/07/31 00:17:39;;;;;;;;;;;20.80;62.30;;;;;;5091341;28;20018;-54
2023/07/31 00:20:11;;;;;;;;;;;20.70;62.10;;;;;;5094232;28;19935;-51
2023/07/31 00:22:38;;;;;;;;;;;20.80;62.20;;;;;;5087061;28;20347;-54
2023/07/31 00:25:06;;;;;;;;;;;20.80;62.00;;;;;;5073463;28;19951;-53
2023/07/31 00:27:35;;;;;;;;;;;20.80;62.10;;;;;;5092656;28;20058;-51
2023/07/31 00:30:01;;;;;;;;;;;20.80;62.10;;;;;;5070762;28;19920;-53
2023/07/31 00:32:32;;;;;;;;;;;20.80;62.10;;;;;;5074596;28;19973;-51
2023/07/31 00:35:00;;;;;;;;;;;20.80;62.00;;;;;;5092295;28;19924;-54
2023/07/31 00:37:29;;;;;;;;;;;20.80;62.10;;;;;;5071409;28;19959;-53
2023/07/31 00:39:55;;;;;;;;;;;20.70;62.10;;;;;;5089600;28;19960;-53
2023/07/31 00:42:24;;;;;;;;;;;20.80;62.30;;;;;;5095301;28;20370;-51
2023/07/31 00:44:53;;;;;;;;;;;20.80;61.90;;;;;;5073690;28;20424;-52
2023/07/31 00:47:24;;;;;;;;;;;20.80;62.10;;;;;;5072684;28;19920;-51
2023/07/31 00:49:54;;;;;;;;;;;20.80;62.10;;;;;;5091454;28;19973;-52
2023/07/31 00:52:21;;;;;;;;;;;20.80;62.20;;;;;;5092406;28;19955;-52
2023/07/31 00:54:48;;;;;;;;;;;20.80;62.10;;;;;;5072764;28;19920;-52
2023/07/31 00:57:15;;;;;;;;;;;20.80;62.10;;;;;;5086342;28;20409;-52
2023/07/31 00:59:46;;;;;;;;;;;20.80;62.00;;;;;;5085755;28;20514;-52
2023/07/31 01:02:14;;;;;;;;;;;20.80;62.20;;;;;;5091666;28;19923;-54
2023/07/31 01:04:42;;;;;;;;;;;20.80;62.30;;;;;;5091457;28;20279;-51
2023/07/31 01:07:09;;;;;;;;;;;20.80;62.00;;;;;;5089751;28;20007;-53
2023/07/31 01:09:41;;;;;;;;;;;20.80;62.00;;;;;;5073053;28;20571;-50
2023/07/31 01:12:12;;;;;;;;;;;20.80;61.70;;;;;;5091809;28;19973;-53
2023/07/31 01:14:50;;;;;;;;;;;20.80;61.80;;;;;;5072836;28;20028;-51
2023/07/31 01:17:19;;;;;;;;;;;20.80;61.60;;;;;;5089968;28;19920;-54
2023/07/31 01:19:47;;;;;;;;;;;20.80;61.80;;;;;;5091055;28;19928;-54
2023/07/31 01:22:28;;;;;;;;;;;20.80;61.60;;;;;;5074491;28;19924;-50
2023/07/31 01:24:57;;;;;;;;;;;20.80;62.00;;;;;;5089117;28;20372;-52
2023/07/31 01:27:28;;;;;;;;;;;20.70;61.60;;;;;;5089391;28;19955;-54
2023/07/31 01:30:00;;;;;;;;;;;20.70;61.80;;;;;;5084696;28;20409;-52
2023/07/31 01:32:29;;;;;;;;;;;20.70;62.00;;;;;;5072535;28;20672;-51
2023/07/31 01:35:01;;;;;;;;;;;20.70;61.90;;;;;;5070466;28;19963;-51
2023/07/31 01:37:30;;;;;;;;;;;20.70;61.60;;;;;;5089311;28;19921;-54
2023/07/31 01:40:01;;;;;;;;;;;20.70;61.80;;;;;;5090277;28;19920;-51
2023/07/31 01:42:27;;;;;;;;;;;20.70;61.80;;;;;;5093541;28;19920;-53
2023/07/31 01:44:55;;;;;;;;;;;20.70;61.60;;;;;;5072274;28;19920;-54
2023/07/31 01:47:25;;;;;;;;;;;20.70;61.80;;;;;;5088291;28;20455;-52
2023/07/31 01:49:54;;;;;;;;;;;20.70;61.80;;;;;;5072469;28;19924;-54
2023/07/31 01:52:22;;;;;;;;;;;20.70;61.90;;;;;;5068048;28;19920;-54
2023/07/31 01:54:51;;;;;;;;;;;20.70;61.80;;;;;;5088568;28;20271;-50
2023/07/31 01:57:18;;;;;;;;;;;20.70;61.80;;;;;;5071895;28;19965;-50
2023/07/31 01:59:45;;;;;;;;;;;20.70;61.90;;;;;;5069097;28;19960;-54
2023/07/31 02:02:16;;;;;;;;;;;20.60;61.80;;;;;;5091181;28;20026;-54
2023/07/31 02:04:51;;;;;;;;;;;20.70;62.10;;;;;;5090608;28;20091;-50
2023/07/31 02:07:17;;;;;;;;;;;20.60;62.00;;;;;;5090335;28;20631;-54
2023/07/31 02:09:47;;;;;;;;;;;20.60;62.10;;;;;;5066756;28;20301;-53
2023/07/31 02:12:17;;;;;;;;;;;20.60;62.20;;;;;;5071653;28;19924;-50
2023/07/31 02:14:44;;;;;;;;;;;20.60;62.20;;;;;;5072087;28;19920;-49
2023/07/31 02:17:11;;;;;;;;;;;20.60;62.20;;;;;;5088600;28;19927;-54
2023/07/31 02:19:37;;;;;;;;;;;20.60;62.50;;;;;;5090532;28;20324;-54
2023/07/31 02:22:09;;;;;;;;;;;20.60;62.20;;;;;;5088102;28;20283;-54
2023/07/31 02:24:35;;;;;;;;;;;20.60;62.30;;;;;;5071665;28;20007;-53
2023/07/31 02:27:05;;;;;;;;;;;20.60;62.40;;;;;;5090779;28;19951;-50
2023/07/31 02:29:36;;;;;;;;;;;20.60;62.20;;;;;;5088295;28;19920;-52
2023/07/31 02:32:05;;;;;;;;;;;20.60;62.30;;;;;;5089793;28;19920;-50
2023/07/31 02:34:32;;;;;;;;;;;20.60;62.50;;;;;;5071160;28;19920;-53
2023/07/31 02:37:00;;;;;;;;;;;20.60;62.60;;;;;;5090544;28;19928;-54
2023/07/31 02:39:28;;;;;;;;;;;20.60;62.70;;;;;;5069491;28;19926;-51
2023/07/31 02:41:57;;;;;;;;;;;20.60;62.80;;;;;;5074289;28;19920;-54
2023/07/31 02:44:29;;;;;;;;;;;20.70;62.80;;;;;;5071251;28;20401;-53
2023/07/31 02:46:58;;;;;;;;;;;20.70;62.60;;;;;;5086034;28;19931;-48
2023/07/31 02:49:24;;;;;;;;;;;20.70;62.60;;;;;;5086378;28;20687;-53
2023/07/31 02:51:51;;;;;;;;;;;20.70;62.50;;;;;;5071354;28;19928;-52
2023/07/31 02:54:20;;;;;;;;;;;20.70;62.40;;;;;;5071149;28;19973;-54
2023/07/31 02:56:47;;;;;;;;;;;20.70;62.60;;;;;;5070194;28;19955;-54
2023/07/31 02:59:14;;;;;;;;;;;20.70;62.50;;;;;;5087390;28;19955;-54
2023/07/31 03:01:41;;;;;;;;;;;20.70;62.70;;;;;;5088635;28;19932;-52
2023/07/31 03:04:10;;;;;;;;;;;20.70;62.80;;;;;;5088858;28;19920;-51
2023/07/31 03:06:37;;;;;;;;;;;20.70;62.70;;;;;;5088833;28;19927;-51
2023/07/31 03:09:05;;;;;;;;;;;20.80;62.70;;;;;;5070359;28;20389;-50
2023/07/31 03:11:35;;;;;;;;;;;20.80;62.70;;;;;;5070125;28;19924;-51
2023/07/31 03:14:02;;;;;;;;;;;20.80;62.30;;;;;;5070330;28;19928;-52
2023/07/31 03:16:31;;;;;;;;;;;20.80;62.90;;;;;;5071361;28;19927;-54
2023/07/31 03:18:58;;;;;;;;;;;20.80;62.70;;;;;;5077987;28;19919;-51
2023/07/31 03:21:27;;;;;;;;;;;20.80;62.80;;;;;;5075201;28;19928;-54
2023/07/31 03:24:00;;;;;;;;;;;20.80;62.70;;;;;;5063260;28;19920;-54
2023/07/31 03:26:29;;;;;;;;;;;20.80;63.20;;;;;;5088940;28;19930;-54
2023/07/31 03:28:56;;;;;;;;;;;20.80;62.60;;;;;;5068819;28;20015;-53
2023/07/31 03:31:22;;;;;;;;;;;20.80;62.60;;;;;;5089068;28;20014;-54
2023/07/31 03:33:53;;;;;;;;;;;20.80;62.60;;;;;;5089193;28;20412;-52
2023/07/31 03:36:25;;;;;;;;;;;20.80;62.40;;;;;;5086513;28;20019;-54
2023/07/31 03:38:53;;;;;;;;;;;20.80;62.60;;;;;;5086301;28;19923;-53
2023/07/31 03:41:21;;;;;;;;;;;20.90;62.70;;;;;;5088628;28;19966;-52
2023/07/31 03:43:51;;;;;;;;;;;20.80;62.60;;;;;;5067970;28;19924;-52
2023/07/31 03:46:24;;;;;;;;;;;20.80;62.60;;;;;;5087376;28;20454;-54
2023/07/31 03:48:57;;;;;;;;;;;20.90;62.70;;;;;;5079763;28;19938;-53
2023/07/31 03:51:23;;;;;;;;;;;20.80;62.60;;;;;;5071043;28;19947;-51
2023/07/31 03:53:50;;;;;;;;;;;20.90;62.50;;;;;;5089535;28;19923;-54
2023/07/31 03:56:19;;;;;;;;;;;20.90;62.50;;;;;;5087040;28;20010;-54
2023/07/31 03:58:45;;;;;;;;;;;20.90;62.50;;;;;;5088220;28;19934;-54
2023/07/31 04:01:13;;;;;;;;;;;20.90;62.80;;;;;;5084272;28;20444;-52
2023/07/31 04:03:40;;;;;;;;;;;20.90;62.80;;;;;;5089180;28;20019;-54
2023/07/31 04:06:07;;;;;;;;;;;20.90;63.00;;;;;;5089334;28;19920;-50
2023/07/31 04:08:35;;;;;;;;;;;20.90;63.00;;;;;;5080984;28;20277;-51
2023/07/31 04:11:02;;;;;;;;;;;20.90;63.00;;;;;;5089065;28;20313;-51
2023/07/31 04:13:29;;;;;;;;;;;20.90;63.10;;;;;;5089811;28;19920;-50
2023/07/31 04:15:58;;;;;;;;;;;20.90;62.80;;;;;;5084330;28;19973;-54
2023/07/31 04:18:27;;;;;;;;;;;20.90;62.90;;;;;;5083536;28;20320;-52
2023/07/31 04:20:59;;;;;;;;;;;20.90;62.90;;;;;;5081810;28;19946;-49
2023/07/31 04:23:35;;;;;;;;;;;20.90;63.10;;;;;;5088638;28;20368;-54
2023/07/31 04:26:01;;;;;;;;;;;20.90;63.10;;;;;;5088088;28;19963;-55
2023/07/31 04:28:28;;;;;;;;;;;21.00;62.90;;;;;;5086333;28;19964;-51
2023/07/31 04:30:55;;;;;;;;;;;21.00;63.10;;;;;;5080448;28;20286;-54
2023/07/31 04:33:21;;;;;;;;;;;21.00;63.60;;;;;;5088158;28;19963;-55
2023/07/31 04:35:52;;;;;;;;;;;21.00;63.20;;;;;;5086166;28;19948;-50
2023/07/31 04:38:22;;;;;;;;;;;21.00;63.20;;;;;;5088095;28;19998;-52
2023/07/31 04:40:58;;;;;;;;;;;21.00;63.10;;;;;;5088778;28;19977;-51
2023/07/31 04:43:24;;;;;;;;;;;21.00;63.10;;;;;;5092215;28;20018;-55
2023/07/31 04:45:53;;;;;;;;;;;21.00;63.10;;;;;;5069606;28;19959;-53
2023/07/31 04:48:20;;;;;;;;;;;21.00;63.40;;;;;;5090054;28;19977;-50
2023/07/31 04:50:48;;;;;;;;;;;21.10;63.30;;;;;;5091514;28;19920;-51
2023/07/31 04:53:18;;;;;;;;;;;21.10;63.30;;;;;;5089575;28;19974;-50
2023/07/31 04:55:45;;;;;;;;;;;21.10;63.20;;;;;;5091495;28;20003;-52
2023/07/31 04:58:11;;;;;;;;;;;21.10;63.20;;;;;;5073499;28;20448;-53
2023/07/31 05:00:38;;;;;;;;;;;21.20;63.20;;;;;;5081625;28;20309;-54
2023/07/31 05:03:05;;;;;;;;;;;21.10;63.40;;;;;;5075728;28;19974;-51
2023/07/31 05:05:31;;;;;;;;;;;21.20;63.60;;;;;;5083153;28;19963;-54
2023/07/31 05:07:58;;;;;;;;;;;21.20;63.20;;;;;;5089023;28;20396;-53
2023/07/31 05:10:27;;;;;;;;;;;21.20;63.20;;;;;;5083664;28;19966;-49
2023/07/31 05:12:54;;;;;;;;;;;21.20;63.20;;;;;;5090820;28;19990;-54
2023/07/31 05:15:20;;;;;;;;;;;21.20;63.30;;;;;;5093664;28;19924;-49
2023/07/31 05:17:47;;;;;;;;;;;21.30;63.00;;;;;;5090806;28;20059;-53
2023/07/31 05:20:14;;;;;;;;;;;21.30;63.10;;;;;;5083549;28;19974;-50
2023/07/31 05:22:41;;;;;;;;;;;21.30;62.90;;;;;;5088664;28;19924;-51
2023/07/31 05:25:10;;;;;;;;;;;21.30;63.10;;;;;;5090419;28;20037;-54
2023/07/31 05:27:36;;;;;;;;;;;21.30;63.10;;;;;;5090659;28;20976;-52
2023/07/31 05:30:03;;;;;;;;;;;21.30;63.00;;;;;;5080816;28;19924;-54
2023/07/31 05:32:30;;;;;;;;;;;21.40;63.00;;;;;;5088176;28;20441;-53
2023/07/31 05:34:57;;;;;;;;;;;21.30;62.90;;;;;;5083580;28;19920;-51
2023/07/31 05:37:28;;;;;;;;;;;21.30;63.00;;;;;;5090811;28;19946;-51
2023/07/31 05:39:55;;;;;;;;;;;21.30;62.90;;;;;;5092674;28;20366;-50
2023/07/31 05:42:21;;;;;;;;;;;21.30;63.00;;;;;;5092055;28;20010;-51
2023/07/31 05:44:50;;;;;;;;;;;21.20;62.80;;;;;;5080391;28;20374;-51
2023/07/31 05:47:17;;;;;;;;;;;21.20;63.00;;;;;;5091855;28;19927;-51
2023/07/31 05:49:46;;;;;;;;;;;21.10;63.10;;;;;;5091449;28;19926;-50
2023/07/31 05:52:12;;;;;;;;;;;21.10;63.30;;;;;;5089201;28;19963;-52
2023/07/31 05:54:39;;;;;;;;;;;21.10;63.60;;;;;;5090743;28;19967;-51
2023/07/31 05:57:06;;;;;;;;;;;21.00;63.60;;;;;;5091677;28;20441;-50
2023/07/31 05:59:33;;;;;;;;;;;21.00;63.70;;;;;;5088610;28;19923;-52
2023/07/31 06:02:00;;;;;;;;;;;21.00;64.20;;;;;;5085632;28;19920;-51
2023/07/31 06:04:30;;;;;;;;;;;20.90;64.10;;;;;;5090962;28;19920;-52
2023/07/31 06:06:57;;;;;;;;;;;20.90;64.00;;;;;;5083190;28;19920;-51
2023/07/31 06:09:25;;;;;;;;;;;20.90;64.10;;;;;;5089480;28;19963;-53
2023/07/31 06:11:52;;;;;;;;;;;20.90;63.80;;;;;;5088890;28;20023;-51
2023/07/31 06:14:22;;;;;;;;;;;20.80;64.20;;;;;;5091992;28;19978;-50
2023/07/31 06:16:52;;;;;;;;;;;20.80;64.20;;;;;;5089868;28;19920;-50
2023/07/31 06:19:20;;;;;;;;;;;20.90;64.40;;;;;;5089192;28;20297;-50
2023/07/31 06:21:47;;;;;;;;;;;20.90;64.40;;;;;;5089024;28;19959;-52
2023/07/31 06:24:18;;;;;;;;;;;20.80;64.30;;;;;;5092485;28;19966;-51
2023/07/31 06:26:45;;;;;;;;;;;20.90;64.50;;;;;;5089144;28;19998;-51
2023/07/31 06:29:11;;;;;;;;;;;20.90;64.30;;;;;;5077197;28;20585;-51
2023/07/31 06:31:40;;;;;;;;;;;20.90;64.20;;;;;;5083574;28;19923;-51
2023/07/31 06:34:09;;;;;;;;;;;20.90;64.50;;;;;;5090412;28;19920;-51
2023/07/31 06:36:39;;;;;;;;;;;20.90;64.60;;;;;;5085750;28;19962;-52
2023/07/31 06:39:09;;;;;;;;;;;20.90;64.50;;;;;;5090001;28;19927;-50
2023/07/31 06:41:35;;;;;;;;;;;20.90;64.40;;;;;;5091902;28;19923;-50
2023/07/31 06:44:08;;;;;;;;;;;21.00;64.50;;;;;;5068070;28;19920;-51
2023/07/31 06:46:35;;;;;;;;;;;20.90;64.60;;;;;;5082137;28;19920;-50
2023/07/31 06:49:10;;;;;;;;;;;20.90;64.50;;;;;;5091612;28;19931;-52
2023/07/31 06:54:00;;;;;;;;;;;20.90;64.30;;;;;;5083274;27;20389;-49
2023/07/31 06:56:29;;;;;;;;;;;21.00;64.70;;;;;;5097298;28;19934;-47
2023/07/31 06:59:01;;;;;;;;;;;20.90;64.70;;;;;;5067185;28;20019;-48
2023/07/31 07:01:32;;;;;;;;;;;20.90;64.70;;;;;;5056394;28;19929;-49
2023/07/31 07:04:01;;;;;;;;;;;20.90;64.80;;;;;;5067227;28;20482;-48
2023/07/31 07:06:29;;;;;;;;;;;20.90;64.80;;;;;;5066660;28;19934;-50
2023/07/31 07:08:55;;;;;;;;;;;20.90;64.50;;;;;;5063014;28;19928;-48
2023/07/31 07:11:22;;;;;;;;;;;20.80;64.80;;;;;;5064875;28;20039;-50
2023/07/31 07:13:49;;;;;;;;;;;20.80;65.20;;;;;;5066979;28;19956;-49
2023/07/31 07:16:15;;;;;;;;;;;20.80;65.30;;;;;;5065870;28;19932;-49
2023/07/31 07:18:42;;;;;;;;;;;20.80;64.40;;;;;;5056291;28;20296;-48
2023/07/31 07:21:24;;;;;;;;;;;20.70;65.10;;;;;;5066836;28;19960;-48
2023/07/31 07:23:53;;;;;;;;;;;20.60;65.50;;;;;;5067196;28;19924;-51
2023/07/31 07:26:19;;;;;;;;;;;20.60;65.80;;;;;;5058353;28;20082;-49
2023/07/31 07:28:46;;;;;;;;;;;20.50;65.60;;;;;;5065032;28;19932;-50
2023/07/31 07:31:14;;;;;;;;;;;20.50;65.20;;;;;;5055390;28;19998;-50
2023/07/31 07:33:43;;;;;;;;;;;20.40;65.90;;;;;;5065317;28;19925;-51
2023/07/31 07:36:12;;;;;;;;;;;20.40;65.80;;;;;;5070292;28;20011;-50
2023/07/31 07:38:39;;;;;;;;;;;20.40;66.10;;;;;;5084776;28;19936;-48
2023/07/31 07:41:06;;;;;;;;;;;20.40;66.50;;;;;;5086340;28;20013;-50
2023/07/31 07:43:32;;;;;;;;;;;20.40;66.80;;;;;;5065817;28;20410;-50
2023/07/31 07:46:01;;;;;;;;;;;20.40;66.90;;;;;;5062765;28;19925;-48
2023/07/31 07:48:31;;;;;;;;;;;20.40;66.40;;;;;;5076912;28;19932;-50
2023/07/31 07:51:00;;;;;;;;;;;20.40;66.20;;;;;;5085864;28;19924;-49
2023/07/31 07:53:27;;;;;;;;;;;20.40;66.60;;;;;;5086420;28;20356;-50
2023/07/31 07:55:55;;;;;;;;;;;20.50;66.90;;;;;;5066113;28;19925;-50
2023/07/31 07:58:22;;;;;;;;;;;20.50;66.10;;;;;;5054133;28;19963;-50
2023/07/31 08:00:50;;;;;;;;;;;20.50;66.80;;;;;;5056977;28;20358;-52
2023/07/31 08:03:20;;;;;;;;;;;20.50;66.00;;;;;;5059579;28;20402;-50
2023/07/31 08:05:47;;;;;;;;;;;20.50;66.10;;;;;;5051986;28;19925;-51
2023/07/31 08:08:22;;;;;;;;;;;20.50;66.50;;;;;;5048820;28;20668;-50
2023/07/31 08:10:51;;;;;;;;;;;20.50;66.50;;;;;;5049928;28;19939;-51
2023/07/31 08:13:20;;;;;;;;;;;20.50;66.50;;;;;;5053293;28;20027;-51
2023/07/31 08:15:49;;;;;;;;;;;20.60;66.70;;;;;;5049845;28;19967;-50
2023/07/31 08:18:17;;;;;;;;;;;20.50;66.60;;;;;;5052019;28;19979;-51
2023/07/31 08:20:44;;;;;;;;;;;20.60;66.40;;;;;;5051376;28;19932;-50
2023/07/31 08:23:11;;;;;;;;;;;20.60;66.80;;;;;;5052997;28;19925;-52
2023/07/31 08:25:40;;;;;;;;;;;20.70;66.80;;;;;;5053609;28;19924;-50
2023/07/31 08:28:09;;;;;;;;;;;20.70;66.90;;;;;;5053544;28;20015;-52
2023/07/31 08:30:36;;;;;;;;;;;20.80;66.60;;;;;;5042818;28;20012;-50
2023/07/31 08:33:05;;;;;;;;;;;20.70;66.50;;;;;;5046119;28;20311;-52
2023/07/31 08:35:32;;;;;;;;;;;20.80;66.60;;;;;;5047811;28;19924;-51
2023/07/31 08:37:58;;;;;;;;;;;20.80;68.00;;;;;;5050786;28;19931;-50
2023/07/31 08:40:28;;;;;;;;;;;20.80;67.20;;;;;;5052464;28;19925;-51
2023/07/31 08:43:02;;;;;;;;;;;20.80;66.30;;;;;;5053563;28;19924;-50
2023/07/31 08:45:29;;;;;;;;;;;20.90;66.70;;;;;;5051231;28;19979;-50
2023/07/31 08:47:58;;;;;;;;;;;20.90;66.10;;;;;;5050433;28;19949;-51
2023/07/31 08:50:25;;;;;;;;;;;20.80;66.40;;;;;;5037091;28;19968;-50
2023/07/31 08:52:52;;;;;;;;;;;20.90;66.50;;;;;;5050328;28;20407;-50
2023/07/31 08:55:24;;;;;;;;;;;20.80;66.10;;;;;;5041833;28;20399;-52
2023/07/31 08:57:59;;;;;;;;;;;20.80;65.90;;;;;;5049612;28;19946;-52
2023/07/31 09:00:31;;;;;;;;;;;20.80;66.60;;;;;;5042306;28;19979;-52
2023/07/31 09:02:59;;;;;;;;;;;20.80;66.70;;;;;;5044746;28;19924;-50
2023/07/31 09:05:26;;;;;;;;;;;20.80;66.90;;;;;;5051645;28;20083;-50
2023/07/31 09:07:54;;;;;;;;;;;20.90;66.70;;;;;;5046174;28;20028;-50
2023/07/31 09:10:26;;;;;;;;;;;20.80;66.70;;;;;;5044721;28;20020;-50
2023/07/31 09:12:53;;;;;;;;;;;20.90;67.20;;;;;;5052039;28;19960;-51
2023/07/31 09:15:20;;;;;;;;;;;20.80;66.60;;;;;;5050877;28;20011;-50
2023/07/31 09:18:08;;;;;;;;;;;20.80;66.40;;;;;;5040668;28;19979;-51
2023/07/31 09:20:35;;;;;;;;;;;20.80;66.60;;;;;;5047268;28;20023;-49
2023/07/31 09:23:07;;;;;;;;;;;20.80;66.90;;;;;;5043995;28;20545;-52
2023/07/31 09:25:37;;;;;;;;;;;20.80;66.60;;;;;;5046386;28;19971;-49
2023/07/31 09:28:07;;;;;;;;;;;20.90;66.80;;;;;;5046614;28;19960;-50
2023/07/31 09:30:51;;;;;;;;;;;20.80;66.20;;;;;;5047913;28;19924;-51
2023/07/31 09:33:19;;;;;;;;;;;20.90;66.90;;;;;;5045531;28;19928;-51
2023/07/31 09:35:47;;;;;;;;;;;20.80;66.50;;;;;;5049208;28;20383;-49
2023/07/31 09:38:15;;;;;;;;;;;20.80;67.00;;;;;;5051336;28;19986;-52
2023/07/31 09:40:42;;;;;;;;;;;20.80;66.80;;;;;;5051323;28;20448;-50
2023/07/31 09:43:12;;;;;;;;;;;20.80;66.80;;;;;;5040617;28;20010;-50
2023/07/31 09:45:45;;;;;;;;;;;20.80;66.80;;;;;;5049025;28;19935;-50
2023/07/31 09:48:13;;;;;;;;;;;20.80;67.10;;;;;;5050374;28;19925;-50
2023/07/31 09:50:41;;;;;;;;;;;20.80;66.70;;;;;;5048489;28;19964;-54
2023/07/31 09:53:08;;;;;;;;;;;20.90;66.60;;;;;;5045374;28;19960;-53
2023/07/31 09:55:37;;;;;;;;;;;20.90;67.40;;;;;;5051670;28;19925;-53
2023/07/31 09:58:05;;;;;;;;;;;20.90;67.20;;;;;;5050188;28;19961;-54
2023/07/31 10:00:32;;;;;;;;;;;21.00;67.60;;;;;;5045006;28;19924;-52
2023/07/31 10:03:06;;;;;;;;;;;21.00;67.60;;;;;;5049680;28;20004;-54
2023/07/31 10:05:37;;;;;;;;;;;21.10;67.10;;;;;;5065917;28;19925;-52
2023/07/31 10:08:05;;;;;;;;;;;21.20;67.30;;;;;;5050820;28;19932;-53
2023/07/31 10:10:32;;;;;;;;;;;21.30;67.60;;;;;;5050833;28;19956;-54
2023/07/31 10:12:59;;;;;;;;;;;21.40;67.80;;;;;;5055053;28;19963;-55
2023/07/31 10:15:26;;;;;;;;;;;21.50;67.70;;;;;;5050098;28;20390;-53
2023/07/31 10:17:53;;;;;;;;;;;21.60;67.30;;;;;;5038003;28;19929;-53
2023/07/31 10:20:21;;;;;;;;;;;21.70;67.20;;;;;;5040665;28;19925;-51
2023/07/31 10:22:48;;;;;;;;;;;21.70;67.00;;;;;;5047707;28;20019;-53
2023/07/31 10:26:23;;;;;;;2.53;1.77;;;21.80;66.20;;;;;;5097392;28;20830;-52
2023/07/31 10:28:52;;;;;;;2.60;1.50;;;21.80;67.70;;;;;;5043044;28;20139;-50
2023/07/31 10:31:19;;;;;;;3.42;2.08;;;21.80;68.10;;;;;;5026604;28;20064;-53
2023/07/31 10:33:46;;;;;;;3.95;1.55;;;21.80;68.50;;;;;;5039395;28;20037;-52
2023/07/31 10:36:17;;;;;;;2.22;1.77;;;21.80;68.20;;;;;;5019996;28;20613;-53
2023/07/31 10:38:45;;;;;;;1.52;1.42;;;21.80;68.50;;;;;;5028654;28;20046;-52
2023/07/31 10:41:12;;;;;;;3.97;1.85;;;21.80;68.50;;;;;;5037454;28;20740;-52
2023/07/31 10:43:39;;;;;;;2.15;1.58;;;21.80;68.80;;;;;;5039020;28;20099;-51
2023/07/31 10:46:12;;;;;;;4.57;2.20;;;21.80;68.80;;;;;;5025974;28;20042;-52
2023/07/31 10:48:41;;;;;;;2.53;2.22;;;21.80;69.10;;;;;;5029095;28;20610;-52
2023/07/31 10:51:09;;;;;;;2.88;1.80;;;21.90;68.90;;;;;;5039795;28;20041;-52
2023/07/31 10:53:37;;;;;;;2.88;1.48;;;22.00;69.00;;;;;;5034594;28;20033;-50
2023/07/31 10:56:05;;;;;;;2.53;1.70;;;22.00;68.80;;;;;;5030442;28;20456;-52
2023/07/31 10:58:33;;;;;;;1.55;1.27;;;22.00;68.60;;;;;;5025045;28;20074;-53
2023/07/31 11:01:02;;;;;;;6.50;1.73;;;22.10;68.70;;;;;;5027044;28;20037;-51
2023/07/31 11:03:49;;;;;;;1.98;1.65;;;22.10;68.60;;;;;;5041375;28;20147;-52
2023/07/31 11:06:16;;;;;;;1.92;1.48;;;22.10;68.80;;;;;;5030375;28;20034;-53
2023/07/31 11:08:47;;;;;;;2.15;1.63;;;22.20;68.70;;;;;;5027696;28;20029;-53
2023/07/31 11:11:16;;;;;;;1.55;1.45;;;22.20;68.50;;;;;;5031705;28;20103;-51
2023/07/31 11:13:49;;;;;;;1.80;1.55;;;22.20;68.00;;;;;;5026165;28;20057;-52
2023/07/31 11:16:18;;;;;;;2.08;1.83;;;22.20;68.00;;;;;;5031820;28;20124;-52
2023/07/31 11:18:47;;;;;;;2.03;1.25;;;22.20;67.90;;;;;;5022063;28;20038;-51
2023/07/31 11:21:21;;;;;;;1.48;1.35;;;22.10;68.00;;;;;;5033707;28;20045;-51
2023/07/31 11:23:50;;;;;;;2.55;1.77;;;22.10;68.40;;;;;;5035684;28;20055;-52
2023/07/31 11:26:18;;;;;;;1.48;1.38;;;22.10;68.10;;;;;;5023301;28;20477;-52
2023/07/31 11:28:47;;;;;;;2.03;1.50;;;22.10;68.20;;;;;;5030730;28;20430;-50
2023/07/31 11:31:14;;;;;;;2.25;1.70;;;22.10;68.40;;;;;;5025480;28;20095;-50
2023/07/31 11:33:41;;;;;;;2.45;1.90;;;22.10;68.60;;;;;;5030536;28;20030;-52
2023/07/31 11:36:16;;;;;;;2.22;2.03;;;22.20;68.40;;;;;;5023373;28;20061;-52
2023/07/31 11:38:43;;;;;;;1.80;1.45;;;22.20;68.60;;;;;;5014148;28;20579;-54
2023/07/31 11:41:12;;;;;;;2.65;1.70;;;22.20;68.20;;;;;;5016339;28;20077;-55
2023/07/31 11:43:39;;;;;;;2.10;1.38;;;22.20;68.00;;;;;;5019088;28;20046;-55
2023/07/31 11:46:06;;;;;;;3.10;1.50;;;22.20;68.00;;;;;;5012923;28;20038;-53
2023/07/31 11:48:37;;;;;;;1.50;1.40;;;22.20;68.10;;;;;;5020084;28;20051;-54
2023/07/31 11:51:06;;;;;;;1.58;1.48;;;22.20;68.00;;;;;;5012028;28;20069;-55
2023/07/31 11:53:42;;;;;;;1.48;1.30;;;22.20;67.90;;;;;;5011334;28;20736;-55
2023/07/31 11:56:11;;;;;;;1.48;1.15;;;22.20;68.20;;;;;;5011288;28;20128;-54
2023/07/31 11:58:39;;;;;;;1.30;1.20;;;22.20;68.70;;;;;;5020803;28;20064;-54
2023/07/31 12:01:07;;;;;;;1.55;1.42;;;22.20;68.20;;;;;;5007834;28;20050;-55
2023/07/31 12:03:36;;;;;;;3.20;1.90;;;22.20;68.10;;;;;;5018190;28;20124;-55
2023/07/31 12:06:04;;;;;;;3.03;1.63;;;22.20;68.30;;;;;;5011995;28;20052;-55
2023/07/31 12:08:31;;;;;;;2.42;1.70;;;22.20;68.40;;;;;;5017075;28;20466;-55
2023/07/31 12:11:06;;;;;;;1.58;1.48;;;22.20;68.80;;;;;;5016822;28;20092;-55
2023/07/31 12:13:33;;;;;;;1.63;1.52;;;22.30;68.70;;;;;;5014892;28;20041;-55
2023/07/31 12:16:02;;;;;;;2.75;1.95;;;22.30;68.70;;;;;;5007212;28;20046;-52
2023/07/31 12:18:34;;;;;;;2.50;1.73;;;22.30;68.60;;;;;;5014759;28;20041;-55
2023/07/31 12:21:04;;;;;;;2.20;2.00;;;22.30;68.80;;;;;;5007104;28;20057;-55
2023/07/31 12:23:32;;;;;;;3.47;2.13;;;22.40;68.80;;;;;;5018458;28;20725;-54
2023/07/31 12:26:15;;;;;;;3.05;1.63;;;22.40;68.70;;;;;;5011945;28;20073;-55
2023/07/31 12:28:49;;;;;;;2.85;1.92;;;22.40;68.60;;;;;;5017704;28;20062;-55
2023/07/31 12:31:18;;;;;;;2.40;2.13;;;22.40;68.40;;;;;;5010329;28;20038;-54
2023/07/31 12:33:46;;;;;;;2.17;1.98;;;22.40;68.30;;;;;;5013362;28;20050;-55
2023/07/31 12:36:15;;;;;;;2.90;2.22;;;22.40;68.40;;;;;;5012466;28;20865;-54
2023/07/31 12:38:42;;;;;;;6.32;3.63;;;22.40;68.40;;;;;;5021096;28;20091;-55
2023/07/31 12:41:09;;;;;;;2.70;1.92;;;22.40;68.80;;;;;;5016915;28;20069;-55
2023/07/31 12:43:40;;;;;;;2.35;2.15;;;22.40;68.60;;;;;;5006793;28;20054;-55
2023/07/31 12:46:10;;;;;;;2.65;2.30;;;22.40;68.60;;;;;;5017878;28;20066;-55
2023/07/31 12:48:38;;;;;;;3.72;2.78;;;22.40;69.00;;;;;;5018075;28;20508;-55
2023/07/31 12:51:06;;;;;;;2.83;2.45;;;22.40;68.70;;;;;;5003995;28;20038;-55
2023/07/31 12:53:33;;;;;;;3.25;2.30;;;22.40;68.80;;;;;;5017179;28;20103;-55
2023/07/31 12:56:00;;;;;;;4.13;2.47;;;22.50;68.80;;;;;;5017115;28;20096;-55
2023/07/31 12:58:27;;;;;;;3.20;2.90;;;22.50;69.30;;;;;;5007834;28;20120;-55
2023/07/31 13:00:54;;;;;;;5.18;2.95;;;22.50;70.00;;;;;;5004347;28;20073;-54
2023/07/31 13:03:20;;;;;;;3.58;3.03;;;22.60;69.30;;;;;;5019587;28;20042;-54
2023/07/31 13:05:50;;;;;;;2.83;2.53;;;22.70;69.50;;;;;;5017257;28;20132;-55
2023/07/31 13:08:17;;;;;;;4.55;2.60;;;22.80;69.00;;;;;;5010492;28;20460;-55
2023/07/31 13:10:44;;;;;;;3.60;2.80;;;23.00;68.90;;;;;;5017445;28;20044;-54
2023/07/31 13:13:11;;;;;;;3.08;2.55;;;23.10;68.80;;;;;;5008980;28;20746;-55
2023/07/31 13:15:38;;;;;;;5.68;2.97;;;23.20;67.90;;;;;;5007915;28;20133;-55
2023/07/31 13:18:04;;;;;;;5.60;3.20;;;23.40;67.50;;;;;;5009840;28;20128;-54
2023/07/31 13:20:31;;;;;;;2.97;2.47;;;23.50;67.10;;;;;;5019963;28;20041;-55
2023/07/31 13:22:58;;;;;;;3.95;2.53;;;23.50;66.50;;;;;;5012248;28;20050;-55
2023/07/31 13:25:24;;;;;;;4.18;2.83;;;23.60;66.10;;;;;;5015192;28;20125;-51
2023/07/31 13:27:51;;;;;;;2.92;2.42;;;23.70;65.80;;;;;;5009814;28;20091;-55
2023/07/31 13:30:18;;;;;;;4.55;2.60;;;23.80;65.30;;;;;;5009631;28;20084;-52
2023/07/31 13:32:44;;;;;;;2.53;2.25;;;23.80;64.80;;;;;;5015781;28;20038;-54
2023/07/31 13:35:11;;;;;;;4.40;3.08;;;23.90;64.90;;;;;;5014924;28;20046;-54
2023/07/31 13:37:44;;;;;;;4.15;2.72;;;23.90;64.80;;;;;;5020150;28;20536;-53
2023/07/31 13:40:11;;;;;;;4.70;2.88;;;24.00;65.00;;;;;;5009864;28;20054;-55
2023/07/31 13:42:37;;;;;;;3.38;2.63;;;24.00;64.80;;;;;;5014827;28;20037;-54
2023/07/31 13:45:05;;;;;;;5.75;2.60;;;24.00;64.60;;;;;;5014060;28;20092;-54
2023/07/31 13:47:34;;;;;;;4.70;3.22;;;23.90;64.10;;;;;;5013368;28;20092;-53
2023/07/31 13:50:00;;;;;;;3.30;2.33;;;23.80;63.80;;;;;;5007545;28;20037;-54
2023/07/31 13:52:27;;;;;;;2.63;2.42;;;23.80;64.00;;;;;;5011460;28;20041;-54
2023/07/31 13:54:54;;;;;;;4.57;2.85;;;23.80;63.90;;;;;;5016382;28;20046;-55
2023/07/31 13:57:21;;;;;;;3.97;2.83;;;23.70;63.90;;;;;;5018965;28;20068;-55
2023/07/31 13:59:47;;;;;;;3.22;2.63;;;23.70;64.10;;;;;;5003295;28;20727;-55
2023/07/31 14:02:14;;;;;;;5.13;2.88;;;23.60;64.10;;;;;;5012146;28;20128;-55